createdAt,value
2022-11-24T00:01:34.668Z,99943.19
2022-11-24T00:04:27.027Z,99948.22
2022-11-24T00:07:12.193Z,99949.53
2022-11-24T00:09:44.975Z,99946.13
2022-11-24T00:12:32.570Z,99954.94
2022-11-24T00:31:42.931Z,99963.31
2022-11-24T00:34:41.876Z,99963.41
2022-11-24T00:37:29.022Z,99958.84
2022-11-24T00:43:28.964Z,99964.66
2022-11-24T00:49:37.947Z,99974.78
2022-11-24T00:53:01.131Z,99973.91
2022-11-24T00:56:26.658Z,99984.94
2022-11-24T01:05:33.528Z,99988.88
2022-11-24T01:08:23.515Z,99996.03
2022-11-24T01:33:00.881Z,100004.63
2022-11-24T01:35:27.639Z,100006.63
2022-11-24T01:37:54.350Z,100006.06
2022-11-24T01:40:21.271Z,100011.59
2022-11-24T01:42:50.918Z,100010.63
2022-11-24T01:45:41.414Z,100005.44
2022-11-24T01:48:22.043Z,99997.75
2022-11-24T01:50:58.398Z,100001.72
2022-11-24T01:53:25.811Z,100004.53
2022-11-24T01:55:53.068Z,100001.38
2022-11-24T01:58:24.654Z,100003.84
2022-11-24T02:00:52.411Z,100008.78
2022-11-24T02:03:25.649Z,100010.81
2022-11-24T02:06:19.665Z,100011.59
2022-11-24T02:09:02.280Z,100006.91
2022-11-24T02:11:35.094Z,100021.53
2022-11-24T02:14:03.969Z,100028.25
2022-11-24T02:16:31.960Z,100022.50
2022-11-24T02:18:58.774Z,100024.25
2022-11-24T02:21:25.641Z,100034.63
2022-11-24T02:24:06.344Z,100029.66
2022-11-24T02:26:41.709Z,100021.38
2022-11-24T02:29:11.682Z,100031.19
2022-11-24T02:31:43.587Z,100032.00
2022-11-24T02:34:10.343Z,100028.66
2022-11-24T02:36:37.169Z,100032.13
2022-11-24T02:39:09.716Z,100026.94
2022-11-24T02:41:37.154Z,100035.75
2022-11-24T02:44:04.333Z,100034.94
2022-11-24T02:46:31.117Z,100038.53
2022-11-24T02:48:57.962Z,100029.72
2022-11-24T02:51:24.691Z,100035.25
2022-11-24T02:53:51.397Z,100040.34
2022-11-24T02:56:18.199Z,100033.59
2022-11-24T02:58:44.947Z,100039.88
2022-11-24T03:01:11.871Z,100031.88
2022-11-24T03:03:39.514Z,100032.31
2022-11-24T03:06:06.323Z,100034.72
2022-11-24T03:08:33.056Z,100044.22
2022-11-24T03:11:01.837Z,100040.47
2022-11-24T03:13:28.681Z,100040.97
2022-11-24T03:15:55.590Z,100049.44
2022-11-24T03:18:22.330Z,100050.94
2022-11-24T03:20:49.663Z,100052.06
2022-11-24T03:23:16.443Z,100055.97
2022-11-24T03:25:43.177Z,100055.41
2022-11-24T03:28:09.920Z,100064.03
2022-11-24T03:30:36.601Z,100057.84
2022-11-24T03:33:05.075Z,100059.13
2022-11-24T03:35:31.832Z,100063.25
2022-11-24T03:37:58.559Z,100063.66
2022-11-24T03:40:25.262Z,100074.81
2022-11-24T03:42:51.946Z,100073.09
2022-11-24T03:48:07.442Z,100083.69
2022-11-24T03:50:34.168Z,100083.75
2022-11-24T03:53:00.935Z,100087.78
2022-11-24T03:55:27.773Z,100089.91
2022-11-24T03:57:54.910Z,100092.56
2022-11-24T04:00:21.769Z,100089.19
2022-11-24T04:02:48.801Z,100093.41
2022-11-24T04:05:15.843Z,100088.94
2022-11-24T04:07:42.684Z,100091.59
2022-11-24T04:10:09.579Z,100101.59
2022-11-24T04:12:45.360Z,100100.13
2022-11-24T04:15:17.935Z,100108.22
2022-11-24T04:17:46.280Z,100117.63
2022-11-24T04:20:13.686Z,100117.44
2022-11-24T04:22:40.457Z,100121.56
2022-11-24T04:25:08.045Z,100127.00
2022-11-24T04:27:36.108Z,100122.34
2022-11-24T04:30:04.615Z,100130.78
2022-11-24T04:32:31.325Z,100126.41
2022-11-24T04:34:58.027Z,100134.69
2022-11-24T04:37:24.865Z,100139.50
2022-11-24T04:39:51.520Z,100138.59
2022-11-24T04:42:18.181Z,100145.28
2022-11-24T04:44:44.864Z,100134.75
2022-11-24T04:47:21.281Z,100142.63
2022-11-24T04:49:49.076Z,100147.69
2022-11-24T04:52:16.924Z,100150.63
2022-11-24T04:54:43.829Z,100150.19
2022-11-24T04:57:22.184Z,100148.53
2022-11-24T04:59:49.950Z,100152.53
2022-11-24T05:02:17.119Z,100153.25
2022-11-24T05:04:43.790Z,100158.22
2022-11-24T05:07:18.042Z,100160.50
2022-11-24T05:10:04.629Z,100157.13
2022-11-24T05:12:31.496Z,100162.94
2022-11-24T05:14:59.375Z,100166.53
2022-11-24T05:17:34.694Z,100166.31
2022-11-24T05:20:01.681Z,100167.72
2022-11-24T05:22:29.658Z,100163.88
2022-11-24T05:24:56.274Z,100167.00
2022-11-24T05:27:23.189Z,100175.16
2022-11-24T05:29:50.020Z,100176.31
2022-11-24T05:32:16.677Z,100172.41
2022-11-24T05:34:45.891Z,100178.72
2022-11-24T05:37:12.547Z,100178.38
2022-11-24T05:39:39.220Z,100171.28
2022-11-24T05:42:26.305Z,100184.09
2022-11-24T05:44:53.716Z,100181.19
2022-11-24T05:47:21.040Z,100183.75
2022-11-24T05:49:47.910Z,100171.84
2022-11-24T05:52:15.471Z,100179.72
2022-11-24T05:54:42.226Z,100190.34
2022-11-24T05:57:09.197Z,100188.38
2022-11-24T05:59:35.948Z,100207.78
2022-11-24T06:02:03.066Z,100197.34
2022-11-24T06:04:29.754Z,100208.94
2022-11-24T06:06:56.402Z,100216.72
2022-11-24T06:09:23.000Z,100203.63
2022-11-24T06:11:49.689Z,100207.28
2022-11-24T06:14:16.401Z,100200.06
2022-11-24T06:16:43.090Z,100209.00
2022-11-24T06:19:11.403Z,100211.97
2022-11-24T06:21:38.108Z,100210.34
2022-11-24T06:24:05.577Z,100206.00
2022-11-24T06:26:32.291Z,100212.03
2022-11-24T06:28:59.405Z,100214.16
2022-11-24T06:31:26.201Z,100226.13
2022-11-24T06:33:53.242Z,100226.50
2022-11-24T06:36:20.429Z,100220.88
2022-11-24T06:38:47.169Z,100237.75
2022-11-24T06:41:15.341Z,100237.88
2022-11-24T06:43:42.202Z,100242.78
2022-11-24T06:46:08.984Z,100234.97
2022-11-24T06:48:35.816Z,100240.69
2022-11-24T06:51:05.976Z,100251.84
2022-11-24T06:53:37.748Z,100257.13
2022-11-24T06:56:12.169Z,100254.81
2022-11-24T06:58:47.541Z,100263.38
2022-11-24T07:01:26.210Z,100269.88
2022-11-24T07:03:54.207Z,100264.44
2022-11-24T07:06:22.655Z,100265.31
2022-11-24T07:08:49.965Z,100268.94
2022-11-24T07:11:19.981Z,100270.28
2022-11-24T07:13:47.379Z,100274.25
2022-11-24T07:16:15.044Z,100278.75
2022-11-24T07:18:42.913Z,100282.38
2022-11-24T07:21:09.788Z,100279.44
2022-11-24T07:23:36.735Z,100282.28
2022-11-24T07:26:06.892Z,100280.88
2022-11-24T07:28:36.847Z,100285.56
2022-11-24T07:31:12.602Z,100290.38
2022-11-24T07:33:39.866Z,100292.53
2022-11-24T07:36:07.810Z,100303.97
2022-11-24T07:38:35.399Z,100303.25
2022-11-24T07:41:03.927Z,100311.94
2022-11-24T07:43:35.347Z,100307.19
2022-11-24T07:46:02.302Z,100309.34
2022-11-24T07:48:29.199Z,100319.19
2022-11-24T07:50:58.951Z,100320.22
2022-11-24T07:53:25.610Z,100324.47
2022-11-24T07:55:58.154Z,100332.69
2022-11-24T07:58:27.685Z,100341.66
2022-11-24T08:00:58.710Z,100333.84
2022-11-24T08:03:25.462Z,100340.88
2022-11-24T08:08:43.324Z,100350.16
2022-11-24T08:11:15.627Z,100353.22
2022-11-24T08:13:42.889Z,100356.25
2022-11-24T08:16:15.423Z,100353.13
2022-11-24T08:18:42.928Z,100354.34
2022-11-24T08:21:13.944Z,100356.00
2022-11-24T08:23:40.779Z,100361.69
2022-11-24T08:26:13.820Z,100360.97
2022-11-24T08:28:40.618Z,100367.16
2022-11-24T08:31:09.994Z,100362.50
2022-11-24T08:33:37.730Z,100372.38
2022-11-24T08:36:09.402Z,100371.41
2022-11-24T08:38:36.170Z,100380.84
2022-11-24T08:41:08.778Z,100381.94
2022-11-24T08:43:35.509Z,100383.06
2022-11-24T08:46:05.088Z,100392.69
2022-11-24T08:48:32.485Z,100387.25
2022-11-24T08:51:05.887Z,100381.38
2022-11-24T08:53:32.553Z,100393.66
2022-11-24T08:56:03.297Z,100387.94
2022-11-24T08:58:30.320Z,100393.72
2022-11-24T09:01:07.748Z,100394.28
2022-11-24T09:03:34.790Z,100401.50
2022-11-24T09:06:02.492Z,100398.91
2022-11-24T09:08:30.538Z,100406.63
2022-11-24T09:11:27.242Z,100406.16
2022-11-24T09:13:54.568Z,100411.53
2022-11-24T09:16:26.047Z,100412.97
2022-11-24T09:19:04.545Z,100408.53
2022-11-24T09:21:34.280Z,100407.06
2022-11-24T09:24:01.201Z,100412.84
2022-11-24T09:26:33.799Z,100415.94
2022-11-24T09:29:02.926Z,100417.16
2022-11-24T09:31:33.527Z,100425.31
2022-11-24T09:34:01.493Z,100414.09
2022-11-24T09:36:28.573Z,100419.94
2022-11-24T09:38:55.417Z,100422.59
2022-11-24T09:41:48.629Z,100423.53
2022-11-24T09:44:34.011Z,100429.13
2022-11-24T09:47:28.355Z,100425.22
2022-11-24T09:50:03.227Z,100428.75
2022-11-24T09:52:49.773Z,100426.22
2022-11-24T09:55:29.275Z,100424.94
2022-11-24T09:58:25.093Z,100435.31
2022-11-24T10:00:54.041Z,100438.31
2022-11-24T10:03:29.406Z,100438.94
2022-11-24T10:05:56.054Z,100438.25
2022-11-24T10:08:50.179Z,100433.44
2022-11-24T10:11:28.367Z,100435.72
2022-11-24T10:14:14.042Z,100438.53
2022-11-24T10:17:02.009Z,100435.44
2022-11-24T10:19:48.599Z,100443.47
2022-11-24T10:22:26.051Z,100438.31
2022-11-24T10:24:58.169Z,100440.09
2022-11-24T10:27:37.258Z,100441.16
2022-11-24T10:30:13.620Z,100454.53
2022-11-24T10:32:42.875Z,100447.50
2022-11-24T10:35:15.832Z,100450.53
2022-11-24T10:37:55.611Z,100450.69
2022-11-24T10:43:27.077Z,100451.94
2022-11-24T10:48:57.464Z,100460.47
2022-11-24T10:51:34.793Z,100449.41
2022-11-24T10:54:11.342Z,100452.38
2022-11-24T10:56:42.437Z,100462.00
2022-11-24T10:59:28.157Z,100460.38
2022-11-24T11:01:55.496Z,100454.78
2022-11-24T11:04:27.594Z,100464.66
2022-11-24T11:07:16.722Z,100466.00
2022-11-24T11:09:43.452Z,100467.94
2022-11-24T11:15:26.894Z,100452.94
2022-11-24T11:17:58.457Z,100467.53
2022-11-24T11:20:33.867Z,100466.34
2022-11-24T11:23:13.426Z,100469.31
2022-11-24T11:25:41.184Z,100478.81
2022-11-24T11:28:31.140Z,100468.50
2022-11-24T11:31:20.667Z,100482.00
2022-11-24T11:34:03.607Z,100485.06
2022-11-24T11:36:33.038Z,100478.00
2022-11-24T11:39:00.134Z,100488.19
2022-11-24T11:41:32.994Z,100487.03
2022-11-24T11:44:25.023Z,100493.88
2022-11-24T11:46:54.491Z,100495.09
2022-11-24T11:49:21.245Z,100494.94
2022-11-24T11:52:23.985Z,100500.66
2022-11-24T11:55:28.012Z,100503.22
2022-11-24T11:58:03.577Z,100506.69
2022-11-24T12:00:35.272Z,100503.22
2022-11-24T12:03:23.844Z,100505.94
2022-11-24T12:06:15.348Z,100513.22
2022-11-24T12:09:19.998Z,100515.50
2022-11-24T12:12:21.325Z,100517.81
2022-11-24T12:15:01.090Z,100516.81
2022-11-24T12:17:52.707Z,100525.13
2022-11-24T12:20:37.822Z,100528.25
2022-11-24T12:23:41.436Z,100531.22
2022-11-24T12:26:32.043Z,100533.91
2022-11-24T12:29:08.016Z,100534.66
2022-11-24T12:31:59.684Z,100540.69
2022-11-24T12:34:29.141Z,100533.94
2022-11-24T12:37:32.903Z,100542.63
2022-11-24T12:40:13.253Z,100541.75
2022-11-24T12:43:13.824Z,100545.25
2022-11-24T12:46:02.591Z,100550.94
2022-11-24T12:48:43.319Z,100557.34
2022-11-24T12:51:25.792Z,100549.22
2022-11-24T12:53:53.679Z,100550.47
2022-11-24T12:56:28.260Z,100558.59
2022-11-24T12:59:10.177Z,100563.25
2022-11-24T13:01:44.255Z,100559.84
2022-11-24T13:04:49.191Z,100565.84
2022-11-24T13:07:32.921Z,100567.00
2022-11-24T13:13:17.375Z,100572.38
2022-11-24T13:16:07.018Z,100577.59
2022-11-24T13:19:01.271Z,100579.41
2022-11-24T13:21:28.415Z,100579.13
2022-11-24T13:24:17.580Z,100578.38
2022-11-24T13:26:48.377Z,100579.44
2022-11-24T13:29:32.095Z,100582.09
2022-11-24T13:32:04.894Z,100591.59
2022-11-24T13:34:40.994Z,100588.75
2022-11-24T13:37:31.723Z,100585.78
2022-11-24T13:40:22.802Z,100594.84
2022-11-24T13:43:01.286Z,100591.00
2022-11-24T13:45:52.371Z,100593.66
2022-11-24T13:48:19.064Z,100596.28
2022-11-24T13:50:54.887Z,100606.72
2022-11-24T13:53:36.368Z,100602.09
2022-11-24T13:56:03.008Z,100605.53
2022-11-24T13:58:43.534Z,100606.19
2022-11-24T14:01:20.387Z,100619.00
2022-11-24T14:04:32.890Z,100617.19
2022-11-24T14:07:09.891Z,100625.50
2022-11-24T14:09:52.602Z,100625.78
2022-11-24T14:12:22.984Z,100636.06
2022-11-24T14:14:55.630Z,100637.25
2022-11-24T14:17:24.582Z,100631.50
2022-11-24T14:19:53.961Z,100635.34
2022-11-24T14:22:33.612Z,100641.34
2022-11-24T14:25:02.550Z,100646.34
2022-11-24T14:27:31.387Z,100647.69
2022-11-24T14:30:22.630Z,100652.22
2022-11-24T14:32:59.569Z,100652.22
2022-11-24T14:35:35.232Z,100643.47
2022-11-24T14:38:03.747Z,100650.53
2022-11-24T14:40:51.380Z,100656.84
2022-11-24T14:43:30.936Z,100648.53
2022-11-24T14:46:00.283Z,100652.66
2022-11-24T14:48:30.515Z,100663.75
2022-11-24T14:51:21.353Z,100666.03
2022-11-24T14:53:51.749Z,100670.97
2022-11-24T14:56:24.438Z,100673.22
2022-11-24T14:58:51.593Z,100677.38
2022-11-24T15:01:21.817Z,100675.00
2022-11-24T15:04:46.355Z,100678.38
2022-11-24T15:07:16.934Z,100690.09
2022-11-24T15:09:49.431Z,100683.47
2022-11-24T15:12:41.447Z,100687.63
2022-11-24T15:15:15.631Z,100682.19
2022-11-24T15:17:53.737Z,100683.03
2022-11-24T15:20:28.346Z,100688.69
2022-11-24T15:23:18.909Z,100699.88
2022-11-24T15:25:45.649Z,100697.97
2022-11-24T15:28:12.311Z,100710.41
2022-11-24T15:30:39.066Z,100712.69
2022-11-24T15:33:17.760Z,100702.81
2022-11-24T15:35:45.244Z,100708.84
2022-11-24T15:38:12.096Z,100711.47
2022-11-24T15:40:40.117Z,100708.25
2022-11-24T15:43:36.766Z,100698.66
2022-11-24T15:46:03.954Z,100691.97
2022-11-24T15:48:31.199Z,100702.78
2022-11-24T15:51:01.174Z,100703.75
2022-11-24T15:53:36.041Z,100699.31
2022-11-24T15:56:06.149Z,100718.38
2022-11-24T15:58:32.814Z,100718.34
2022-11-24T16:00:59.551Z,100719.22
2022-11-24T16:06:19.254Z,100728.25
2022-11-24T16:08:50.252Z,100720.59
2022-11-24T16:11:16.936Z,100719.38
2022-11-24T16:13:48.393Z,100733.41
2022-11-24T16:16:18.483Z,100725.84
2022-11-24T16:18:45.464Z,100729.88
2022-11-24T16:21:12.251Z,100720.19
2022-11-24T16:23:39.003Z,100733.63
2022-11-24T16:26:06.185Z,100724.31
2022-11-24T16:28:32.942Z,100739.41
2022-11-24T16:30:59.701Z,100731.94
2022-11-24T16:33:29.095Z,100736.13
2022-11-24T16:35:55.726Z,100733.56
2022-11-24T16:38:22.415Z,100718.31
2022-11-24T16:40:54.155Z,100734.56
2022-11-24T16:43:20.935Z,100736.28
2022-11-24T16:45:59.980Z,100732.53
2022-11-24T16:48:26.736Z,100741.69
2022-11-24T16:50:53.405Z,100737.59
2022-11-24T16:53:20.123Z,100734.03
2022-11-24T16:55:56.578Z,100736.00
2022-11-24T16:58:23.193Z,100734.28
2022-11-24T17:00:50.107Z,100730.28
2022-11-24T17:03:16.807Z,100730.75
2022-11-24T17:05:43.483Z,100727.97
2022-11-24T17:08:10.159Z,100737.00
2022-11-24T17:10:39.810Z,100737.69
2022-11-24T17:13:06.474Z,100740.69
2022-11-24T17:15:37.792Z,100737.72
2022-11-24T17:18:35.685Z,100738.00
2022-11-24T17:20:57.835Z,100740.25
2022-11-24T17:23:25.100Z,100739.78
2022-11-24T17:25:51.729Z,100744.78
2022-11-24T17:28:18.686Z,100753.56
2022-11-24T17:30:45.363Z,100754.72
2022-11-24T17:33:12.635Z,100753.34
2022-11-24T17:35:39.329Z,100754.84
2022-11-24T17:38:05.996Z,100755.22
2022-11-24T17:40:32.652Z,100760.97
2022-11-24T17:43:00.413Z,100767.50
2022-11-24T17:45:28.761Z,100775.22
2022-11-24T17:47:56.182Z,100782.31
2022-11-24T17:50:25.927Z,100781.19
2022-11-24T17:52:53.842Z,100788.53
2022-11-24T17:55:21.021Z,100785.44
2022-11-24T17:57:47.680Z,100795.22
2022-11-24T18:00:14.838Z,100795.38
2022-11-24T18:02:41.883Z,100793.19
2022-11-24T18:05:09.036Z,100799.78
2022-11-24T18:07:36.975Z,100803.13
2022-11-24T18:10:04.252Z,100799.66
2022-11-24T18:12:32.052Z,100801.56
2022-11-24T18:14:58.754Z,100803.31
2022-11-24T18:17:25.557Z,100811.13
2022-11-24T18:19:52.234Z,100809.34
2022-11-24T18:22:21.058Z,100804.72
2022-11-24T18:24:53.894Z,100815.22
2022-11-24T18:27:20.509Z,100805.19
2022-11-24T18:29:49.830Z,100814.44
2022-11-24T18:32:18.702Z,100815.28
2022-11-24T18:34:45.385Z,100822.00
2022-11-24T18:37:13.568Z,100824.28
2022-11-24T18:39:42.979Z,100820.59
2022-11-24T18:42:10.427Z,100822.81
2022-11-24T18:44:37.326Z,100817.13
2022-11-24T18:47:04.461Z,100816.47
2022-11-24T18:49:34.153Z,100820.56
2022-11-24T18:52:00.760Z,100818.19
2022-11-24T18:54:28.152Z,100817.56
2022-11-24T18:56:58.989Z,100819.25
2022-11-24T18:59:29.766Z,100830.66
2022-11-24T19:01:57.984Z,100820.28
2022-11-24T19:04:26.197Z,100823.56
2022-11-24T19:06:52.953Z,100830.03
2022-11-24T19:09:22.551Z,100829.28
2022-11-24T19:11:49.300Z,100834.66
2022-11-24T19:14:18.165Z,100839.28
2022-11-24T19:16:47.591Z,100838.78
2022-11-24T19:19:14.353Z,100841.78
2022-11-24T19:21:41.158Z,100837.72
2022-11-24T19:24:13.319Z,100830.31
2022-11-24T19:26:40.450Z,100836.97
2022-11-24T19:29:08.426Z,100845.94
2022-11-24T19:31:35.878Z,100843.09
2022-11-24T19:34:03.438Z,100836.56
2022-11-24T19:36:30.626Z,100841.88
2022-11-24T19:38:58.537Z,100840.88
2022-11-24T19:41:28.165Z,100835.00
2022-11-24T19:43:55.176Z,100847.69
2022-11-24T19:46:26.085Z,100849.94
2022-11-24T19:48:59.791Z,100844.75
2022-11-24T19:51:31.998Z,100852.19
2022-11-24T19:53:59.497Z,100849.72
2022-11-24T19:56:31.691Z,100857.94
2022-11-24T19:58:58.355Z,100849.16
2022-11-24T20:01:31.316Z,100854.59
2022-11-24T20:04:03.825Z,100858.22
2022-11-24T20:06:32.960Z,100866.19
2022-11-24T20:09:00.703Z,100866.38
2022-11-24T20:11:28.278Z,100867.59
2022-11-24T20:13:55.634Z,100872.31
2022-11-24T20:16:29.410Z,100873.44
2022-11-24T20:18:58.687Z,100876.25
2022-11-24T20:21:33.125Z,100880.88
2022-11-24T20:24:05.747Z,100882.78
2022-11-24T20:26:36.287Z,100877.06
2022-11-24T20:29:04.052Z,100874.81
2022-11-24T20:31:36.598Z,100883.25
2022-11-24T20:34:05.076Z,100879.06
2022-11-24T20:36:32.868Z,100881.53
2022-11-24T20:39:01.406Z,100885.78
2022-11-24T20:41:30.341Z,100882.06
2022-11-24T20:44:01.147Z,100882.50
2022-11-24T20:46:30.272Z,100885.09
2022-11-24T20:48:57.857Z,100888.88
2022-11-24T20:51:27.511Z,100888.25
2022-11-24T20:53:58.228Z,100897.06
2022-11-24T20:56:28.072Z,100900.00
2022-11-24T20:58:55.475Z,100898.09
2022-11-24T21:01:31.330Z,100901.94
2022-11-24T21:03:59.454Z,100914.78
2022-11-24T21:06:28.054Z,100910.25
2022-11-24T21:09:00.491Z,100911.72
2022-11-24T21:11:30.275Z,100917.47
2022-11-24T21:13:57.266Z,100912.56
2022-11-24T21:16:27.471Z,100923.13
2022-11-24T21:19:02.439Z,100920.78
2022-11-24T21:21:34.101Z,100912.41
2022-11-24T21:24:02.599Z,100914.38
2022-11-24T21:26:29.557Z,100912.53
2022-11-24T21:28:57.120Z,100916.28
2022-11-24T21:31:24.386Z,100920.63
2022-11-24T21:33:53.106Z,100924.13
2022-11-24T21:36:23.337Z,100926.84
2022-11-24T21:38:58.767Z,100919.44
2022-11-24T21:41:28.208Z,100924.78
2022-11-24T21:43:55.933Z,100917.16
2022-11-24T21:46:23.132Z,100926.78
2022-11-24T21:48:50.820Z,100927.84
2022-11-24T21:51:19.699Z,100926.81
2022-11-24T21:53:47.418Z,100931.75
2022-11-24T21:56:17.362Z,100936.22
2022-11-24T21:58:51.981Z,100926.72
2022-11-24T22:01:20.360Z,100933.00
2022-11-24T22:03:47.208Z,100946.16
2022-11-24T22:06:15.434Z,100938.81
2022-11-24T22:08:42.351Z,100935.19
2022-11-24T22:11:13.627Z,100947.28
2022-11-24T22:13:41.398Z,100952.00
2022-11-24T22:16:10.701Z,100944.84
2022-11-24T22:18:40.071Z,100957.16
2022-11-24T22:21:08.453Z,100953.84
2022-11-24T22:23:36.295Z,100956.34
2022-11-24T22:26:05.487Z,100961.59
2022-11-24T22:28:33.401Z,100964.97
2022-11-24T22:31:07.515Z,100961.81
2022-11-24T22:33:34.490Z,100964.38
2022-11-24T22:36:02.037Z,100961.78
2022-11-24T22:38:30.167Z,100959.50
2022-11-24T22:41:17.256Z,100951.41
2022-11-24T22:43:45.199Z,100951.94
2022-11-24T22:46:13.280Z,100944.00
2022-11-24T22:48:40.793Z,100949.56
2022-11-24T22:51:13.186Z,100949.97
2022-11-24T22:53:41.725Z,100954.81
2022-11-24T22:56:10.996Z,100949.66
2022-11-24T22:58:39.148Z,100948.19
2022-11-24T23:01:20.430Z,100942.66
2022-11-24T23:03:48.686Z,100951.72
2022-11-24T23:06:18.212Z,100954.38
2022-11-24T23:08:44.980Z,100940.22
2022-11-24T23:11:14.939Z,100937.75
2022-11-24T23:13:42.355Z,100936.31
2022-11-24T23:16:19.092Z,100948.94
2022-11-24T23:18:52.367Z,100939.34
2022-11-24T23:21:27.027Z,100934.84
2022-11-24T23:23:54.165Z,100943.06
2022-11-24T23:26:26.450Z,100944.75
2022-11-24T23:28:53.531Z,100938.66
2022-11-24T23:31:24.256Z,100939.47
2022-11-24T23:33:51.047Z,100937.75
2022-11-24T23:36:19.143Z,100918.75
2022-11-24T23:38:47.227Z,100931.13
2022-11-24T23:41:16.745Z,100926.28
2022-11-24T23:43:43.830Z,100913.69
2022-11-24T23:46:20.464Z,100918.25
2022-11-24T23:48:48.190Z,100915.38
2022-11-24T23:51:14.701Z,100913.84
2022-11-24T23:53:42.227Z,100916.34
2022-11-24T23:56:12.525Z,100906.19
2022-11-24T23:58:39.878Z,100911.09
